sensor_id;sensor_type;location;lat;lon;timestamp;P1;durP1;ratioP1;P2;durP2;ratioP2
34060;SDS011;20336;-33.424;-70.638;2023-07-31T00:01:51;75.40;;;34.42;;
34060;SDS011;20336;-33.424;-70.638;2023-07-31T00:04:18;65.70;;;29.77;;
34060;SDS011;20336;-33.424;-70.638;2023-07-31T00:06:45;67.55;;;30.90;;
34060;SDS011;20336;-33.424;-70.638;2023-07-31T00:09:12;65.90;;;29.15;;
34060;SDS011;20336;-33.424;-70.638;2023-07-31T00:11:38;65.22;;;31.08;;
34060;SDS011;20336;-33.424;-70.638;2023-07-31T00:14:05;85.15;;;36.97;;
34060;SDS011;20336;-33.424;-70.638;2023-07-31T00:16:32;90.35;;;40.25;;
34060;SDS011;20336;-33.424;-70.638;2023-07-31T00:18:59;106.78;;;47.08;;
34060;SDS011;20336;-33.424;-70.638;2023-07-31T00:21:26;109.13;;;46.17;;
34060;SDS011;20336;-33.424;-70.638;2023-07-31T00:23:53;115.13;;;50.20;;
34060;SDS011;20336;-33.424;-70.638;2023-07-31T00:26:20;122.25;;;47.83;;
34060;SDS011;20336;-33.424;-70.638;2023-07-31T00:28:47;113.75;;;49.28;;
34060;SDS011;20336;-33.424;-70.638;2023-07-31T00:31:14;114.95;;;49.20;;
34060;SDS011;20336;-33.424;-70.638;2023-07-31T00:33:41;111.72;;;47.10;;
34060;SDS011;20336;-33.424;-70.638;2023-07-31T00:36:08;113.07;;;47.60;;
34060;SDS011;20336;-33.424;-70.638;2023-07-31T00:38:35;113.68;;;47.95;;
34060;SDS011;20336;-33.424;-70.638;2023-07-31T00:41:01;115.45;;;49.25;;
34060;SDS011;20336;-33.424;-70.638;2023-07-31T00:43:28;117.47;;;49.25;;
34060;SDS011;20336;-33.424;-70.638;2023-07-31T00:45:55;126.40;;;51.78;;
34060;SDS011;20336;-33.424;-70.638;2023-07-31T00:48:22;113.47;;;50.38;;
34060;SDS011;20336;-33.424;-70.638;2023-07-31T00:50:50;117.75;;;49.72;;
34060;SDS011;20336;-33.424;-70.638;2023-07-31T00:53:16;128.07;;;51.78;;
34060;SDS011;20336;-33.424;-70.638;2023-07-31T00:55:43;125.35;;;50.97;;
34060;SDS011;20336;-33.424;-70.638;2023-07-31T00:58:11;130.50;;;51.53;;
34060;SDS011;20336;-33.424;-70.638;2023-07-31T01:00:37;118.07;;;50.00;;
34060;SDS011;20336;-33.424;-70.638;2023-07-31T01:03:04;123.30;;;50.00;;
34060;SDS011;20336;-33.424;-70.638;2023-07-31T01:05:49;119.13;;;50.30;;
34060;SDS011;20336;-33.424;-70.638;2023-07-31T01:11:29;125.63;;;51.90;;
34060;SDS011;20336;-33.424;-70.638;2023-07-31T01:14:00;115.88;;;48.13;;
34060;SDS011;20336;-33.424;-70.638;2023-07-31T01:16:27;120.60;;;49.60;;
34060;SDS011;20336;-33.424;-70.638;2023-07-31T01:18:54;114.97;;;49.10;;
34060;SDS011;20336;-33.424;-70.638;2023-07-31T01:24:20;112.38;;;46.83;;
34060;SDS011;20336;-33.424;-70.638;2023-07-31T01:26:49;118.53;;;47.80;;
34060;SDS011;20336;-33.424;-70.638;2023-07-31T01:29:32;109.10;;;46.85;;
34060;SDS011;20336;-33.424;-70.638;2023-07-31T01:32:12;102.28;;;44.70;;
34060;SDS011;20336;-33.424;-70.638;2023-07-31T01:34:40;100.72;;;44.35;;
34060;SDS011;20336;-33.424;-70.638;2023-07-31T01:37:08;99.88;;;42.65;;
34060;SDS011;20336;-33.424;-70.638;2023-07-31T01:39:35;98.53;;;41.17;;
34060;SDS011;20336;-33.424;-70.638;2023-07-31T01:42:01;97.20;;;42.28;;
34060;SDS011;20336;-33.424;-70.638;2023-07-31T01:44:28;92.47;;;41.10;;
34060;SDS011;20336;-33.424;-70.638;2023-07-31T01:46:56;92.43;;;39.47;;
34060;SDS011;20336;-33.424;-70.638;2023-07-31T01:49:25;92.70;;;39.30;;
34060;SDS011;20336;-33.424;-70.638;2023-07-31T01:51:52;90.20;;;38.78;;
34060;SDS011;20336;-33.424;-70.638;2023-07-31T01:54:19;94.45;;;40.90;;
34060;SDS011;20336;-33.424;-70.638;2023-07-31T01:56:46;106.25;;;44.05;;
34060;SDS011;20336;-33.424;-70.638;2023-07-31T01:59:13;119.55;;;47.75;;
34060;SDS011;20336;-33.424;-70.638;2023-07-31T02:01:39;107.65;;;47.47;;
34060;SDS011;20336;-33.424;-70.638;2023-07-31T02:04:06;120.60;;;47.72;;
34060;SDS011;20336;-33.424;-70.638;2023-07-31T02:06:33;118.68;;;48.72;;
34060;SDS011;20336;-33.424;-70.638;2023-07-31T02:09:00;127.90;;;49.15;;
34060;SDS011;20336;-33.424;-70.638;2023-07-31T02:11:27;119.47;;;48.65;;
34060;SDS011;20336;-33.424;-70.638;2023-07-31T02:13:54;123.15;;;49.83;;
34060;SDS011;20336;-33.424;-70.638;2023-07-31T02:16:21;117.90;;;49.63;;
34060;SDS011;20336;-33.424;-70.638;2023-07-31T02:18:48;117.10;;;48.42;;
34060;SDS011;20336;-33.424;-70.638;2023-07-31T02:21:14;109.07;;;47.45;;
34060;SDS011;20336;-33.424;-70.638;2023-07-31T02:23:42;113.93;;;48.33;;
34060;SDS011;20336;-33.424;-70.638;2023-07-31T02:26:08;119.60;;;50.28;;
34060;SDS011;20336;-33.424;-70.638;2023-07-31T02:28:35;127.97;;;51.50;;
34060;SDS011;20336;-33.424;-70.638;2023-07-31T02:31:02;117.57;;;47.78;;
34060;SDS011;20336;-33.424;-70.638;2023-07-31T02:33:29;122.65;;;50.03;;
34060;SDS011;20336;-33.424;-70.638;2023-07-31T02:35:56;124.25;;;50.40;;
34060;SDS011;20336;-33.424;-70.638;2023-07-31T02:38:23;126.40;;;50.35;;
34060;SDS011;20336;-33.424;-70.638;2023-07-31T02:40:50;113.65;;;49.50;;
34060;SDS011;20336;-33.424;-70.638;2023-07-31T02:43:16;120.20;;;49.60;;
34060;SDS011;20336;-33.424;-70.638;2023-07-31T02:45:44;117.90;;;47.85;;
34060;SDS011;20336;-33.424;-70.638;2023-07-31T02:48:10;120.35;;;49.20;;
34060;SDS011;20336;-33.424;-70.638;2023-07-31T02:50:37;114.20;;;46.90;;
34060;SDS011;20336;-33.424;-70.638;2023-07-31T02:53:04;115.75;;;47.33;;
34060;SDS011;20336;-33.424;-70.638;2023-07-31T02:55:31;118.13;;;48.80;;
34060;SDS011;20336;-33.424;-70.638;2023-07-31T02:57:58;113.30;;;46.15;;
34060;SDS011;20336;-33.424;-70.638;2023-07-31T03:00:25;109.28;;;47.17;;
34060;SDS011;20336;-33.424;-70.638;2023-07-31T03:02:51;121.97;;;48.85;;
34060;SDS011;20336;-33.424;-70.638;2023-07-31T03:05:18;104.47;;;45.70;;
34060;SDS011;20336;-33.424;-70.638;2023-07-31T03:07:45;124.82;;;49.03;;
34060;SDS011;20336;-33.424;-70.638;2023-07-31T03:10:12;120.00;;;48.08;;
34060;SDS011;20336;-33.424;-70.638;2023-07-31T03:12:39;114.72;;;46.33;;
34060;SDS011;20336;-33.424;-70.638;2023-07-31T03:15:06;126.43;;;50.47;;
34060;SDS011;20336;-33.424;-70.638;2023-07-31T03:17:34;135.07;;;53.42;;
34060;SDS011;20336;-33.424;-70.638;2023-07-31T03:20:00;119.65;;;50.78;;
34060;SDS011;20336;-33.424;-70.638;2023-07-31T03:22:27;132.00;;;51.90;;
34060;SDS011;20336;-33.424;-70.638;2023-07-31T03:24:54;121.25;;;46.78;;
34060;SDS011;20336;-33.424;-70.638;2023-07-31T03:27:21;109.50;;;44.95;;
34060;SDS011;20336;-33.424;-70.638;2023-07-31T03:29:48;102.50;;;38.92;;
34060;SDS011;20336;-33.424;-70.638;2023-07-31T03:32:16;88.88;;;35.53;;
34060;SDS011;20336;-33.424;-70.638;2023-07-31T03:34:43;77.80;;;31.70;;
34060;SDS011;20336;-33.424;-70.638;2023-07-31T03:37:10;77.15;;;32.10;;
34060;SDS011;20336;-33.424;-70.638;2023-07-31T03:39:37;85.22;;;31.92;;
34060;SDS011;20336;-33.424;-70.638;2023-07-31T03:42:04;76.43;;;29.90;;
34060;SDS011;20336;-33.424;-70.638;2023-07-31T03:44:31;78.50;;;31.23;;
34060;SDS011;20336;-33.424;-70.638;2023-07-31T03:46:58;94.90;;;35.97;;
34060;SDS011;20336;-33.424;-70.638;2023-07-31T03:49:25;91.85;;;35.35;;
34060;SDS011;20336;-33.424;-70.638;2023-07-31T03:51:52;98.10;;;38.42;;
34060;SDS011;20336;-33.424;-70.638;2023-07-31T03:54:19;93.50;;;36.45;;
34060;SDS011;20336;-33.424;-70.638;2023-07-31T03:56:46;113.47;;;40.75;;
34060;SDS011;20336;-33.424;-70.638;2023-07-31T03:59:13;105.13;;;41.38;;
34060;SDS011;20336;-33.424;-70.638;2023-07-31T04:01:39;115.85;;;46.72;;
34060;SDS011;20336;-33.424;-70.638;2023-07-31T04:04:06;117.90;;;45.35;;
34060;SDS011;20336;-33.424;-70.638;2023-07-31T04:06:33;105.50;;;43.35;;
34060;SDS011;20336;-33.424;-70.638;2023-07-31T04:09:00;101.45;;;42.97;;
34060;SDS011;20336;-33.424;-70.638;2023-07-31T04:11:28;123.43;;;48.35;;
34060;SDS011;20336;-33.424;-70.638;2023-07-31T04:13:55;130.13;;;48.92;;
34060;SDS011;20336;-33.424;-70.638;2023-07-31T04:16:21;124.35;;;49.72;;
34060;SDS011;20336;-33.424;-70.638;2023-07-31T04:18:48;115.25;;;45.53;;
34060;SDS011;20336;-33.424;-70.638;2023-07-31T04:21:15;121.27;;;49.00;;
34060;SDS011;20336;-33.424;-70.638;2023-07-31T04:23:43;117.88;;;46.78;;
34060;SDS011;20336;-33.424;-70.638;2023-07-31T04:26:10;116.95;;;45.45;;
34060;SDS011;20336;-33.424;-70.638;2023-07-31T04:28:36;125.28;;;47.65;;
34060;SDS011;20336;-33.424;-70.638;2023-07-31T04:31:03;110.03;;;43.30;;
34060;SDS011;20336;-33.424;-70.638;2023-07-31T04:33:30;128.50;;;47.85;;
34060;SDS011;20336;-33.424;-70.638;2023-07-31T04:35:57;120.55;;;45.92;;
34060;SDS011;20336;-33.424;-70.638;2023-07-31T04:38:26;120.22;;;46.08;;
34060;SDS011;20336;-33.424;-70.638;2023-07-31T04:40:52;125.20;;;46.97;;
34060;SDS011;20336;-33.424;-70.638;2023-07-31T04:43:19;118.53;;;46.50;;
34060;SDS011;20336;-33.424;-70.638;2023-07-31T04:45:46;118.78;;;46.97;;
34060;SDS011;20336;-33.424;-70.638;2023-07-31T04:48:17;124.87;;;48.10;;
34060;SDS011;20336;-33.424;-70.638;2023-07-31T04:50:43;125.35;;;47.85;;
34060;SDS011;20336;-33.424;-70.638;2023-07-31T04:53:10;123.10;;;46.50;;
34060;SDS011;20336;-33.424;-70.638;2023-07-31T04:55:37;128.40;;;46.42;;
34060;SDS011;20336;-33.424;-70.638;2023-07-31T04:58:04;116.93;;;46.40;;
34060;SDS011;20336;-33.424;-70.638;2023-07-31T05:00:31;129.02;;;47.45;;
34060;SDS011;20336;-33.424;-70.638;2023-07-31T05:02:58;114.03;;;44.23;;
34060;SDS011;20336;-33.424;-70.638;2023-07-31T05:05:25;115.60;;;45.40;;
34060;SDS011;20336;-33.424;-70.638;2023-07-31T05:07:51;117.57;;;44.63;;
34060;SDS011;20336;-33.424;-70.638;2023-07-31T05:10:18;126.85;;;45.13;;
34060;SDS011;20336;-33.424;-70.638;2023-07-31T05:12:45;116.40;;;43.43;;
34060;SDS011;20336;-33.424;-70.638;2023-07-31T05:15:12;115.13;;;44.50;;
34060;SDS011;20336;-33.424;-70.638;2023-07-31T05:17:39;116.03;;;42.87;;
34060;SDS011;20336;-33.424;-70.638;2023-07-31T05:20:06;119.07;;;46.40;;
34060;SDS011;20336;-33.424;-70.638;2023-07-31T05:22:34;109.90;;;43.33;;
34060;SDS011;20336;-33.424;-70.638;2023-07-31T05:25:01;118.87;;;45.43;;
34060;SDS011;20336;-33.424;-70.638;2023-07-31T05:27:28;127.17;;;45.60;;
34060;SDS011;20336;-33.424;-70.638;2023-07-31T05:29:54;134.07;;;47.60;;
34060;SDS011;20336;-33.424;-70.638;2023-07-31T05:32:21;134.90;;;47.33;;
34060;SDS011;20336;-33.424;-70.638;2023-07-31T05:34:50;119.80;;;44.37;;
34060;SDS011;20336;-33.424;-70.638;2023-07-31T05:37:18;113.57;;;42.63;;
34060;SDS011;20336;-33.424;-70.638;2023-07-31T05:39:45;120.00;;;45.63;;
34060;SDS011;20336;-33.424;-70.638;2023-07-31T05:42:11;116.13;;;45.73;;
34060;SDS011;20336;-33.424;-70.638;2023-07-31T05:44:38;113.63;;;43.33;;
34060;SDS011;20336;-33.424;-70.638;2023-07-31T05:47:05;106.40;;;40.97;;
34060;SDS011;20336;-33.424;-70.638;2023-07-31T05:49:32;103.53;;;41.33;;
34060;SDS011;20336;-33.424;-70.638;2023-07-31T05:52:00;111.00;;;41.93;;
34060;SDS011;20336;-33.424;-70.638;2023-07-31T05:54:26;112.80;;;43.13;;
34060;SDS011;20336;-33.424;-70.638;2023-07-31T05:56:53;124.17;;;43.50;;
34060;SDS011;20336;-33.424;-70.638;2023-07-31T05:59:20;120.83;;;43.93;;
34060;SDS011;20336;-33.424;-70.638;2023-07-31T06:01:47;113.93;;;43.63;;
34060;SDS011;20336;-33.424;-70.638;2023-07-31T06:04:14;111.53;;;43.00;;
34060;SDS011;20336;-33.424;-70.638;2023-07-31T06:06:41;123.00;;;44.97;;
34060;SDS011;20336;-33.424;-70.638;2023-07-31T06:09:08;115.33;;;45.63;;
34060;SDS011;20336;-33.424;-70.638;2023-07-31T06:11:34;120.93;;;45.80;;
34060;SDS011;20336;-33.424;-70.638;2023-07-31T06:14:01;107.47;;;43.20;;
34060;SDS011;20336;-33.424;-70.638;2023-07-31T06:16:28;118.03;;;44.33;;
34060;SDS011;20336;-33.424;-70.638;2023-07-31T06:18:55;126.37;;;46.17;;
34060;SDS011;20336;-33.424;-70.638;2023-07-31T06:21:22;116.53;;;44.23;;
34060;SDS011;20336;-33.424;-70.638;2023-07-31T06:23:49;128.17;;;46.30;;
34060;SDS011;20336;-33.424;-70.638;2023-07-31T06:26:16;121.00;;;44.50;;
34060;SDS011;20336;-33.424;-70.638;2023-07-31T06:28:42;120.77;;;43.87;;
34060;SDS011;20336;-33.424;-70.638;2023-07-31T06:31:09;125.63;;;46.87;;
34060;SDS011;20336;-33.424;-70.638;2023-07-31T06:33:36;126.77;;;45.17;;
34060;SDS011;20336;-33.424;-70.638;2023-07-31T06:36:03;126.87;;;45.53;;
34060;SDS011;20336;-33.424;-70.638;2023-07-31T06:38:30;107.50;;;40.47;;
34060;SDS011;20336;-33.424;-70.638;2023-07-31T06:40:57;107.83;;;38.80;;
34060;SDS011;20336;-33.424;-70.638;2023-07-31T06:43:24;243.70;;;105.40;;
34060;SDS011;20336;-33.424;-70.638;2023-07-31T06:45:51;141.83;;;57.93;;
34060;SDS011;20336;-33.424;-70.638;2023-07-31T06:48:17;116.67;;;45.23;;
34060;SDS011;20336;-33.424;-70.638;2023-07-31T06:50:44;101.90;;;40.10;;
34060;SDS011;20336;-33.424;-70.638;2023-07-31T06:53:11;120.83;;;53.00;;
34060;SDS011;20336;-33.424;-70.638;2023-07-31T06:55:38;81.93;;;32.27;;
34060;SDS011;20336;-33.424;-70.638;2023-07-31T06:58:05;124.00;;;52.33;;
34060;SDS011;20336;-33.424;-70.638;2023-07-31T07:00:32;104.27;;;43.40;;
34060;SDS011;20336;-33.424;-70.638;2023-07-31T07:02:58;67.83;;;27.57;;
34060;SDS011;20336;-33.424;-70.638;2023-07-31T07:05:25;72.73;;;29.20;;
34060;SDS011;20336;-33.424;-70.638;2023-07-31T07:07:53;63.70;;;25.40;;
34060;SDS011;20336;-33.424;-70.638;2023-07-31T07:10:19;67.03;;;27.23;;
34060;SDS011;20336;-33.424;-70.638;2023-07-31T07:12:47;86.00;;;37.77;;
34060;SDS011;20336;-33.424;-70.638;2023-07-31T07:15:15;81.40;;;31.70;;
34060;SDS011;20336;-33.424;-70.638;2023-07-31T07:17:41;80.20;;;32.13;;
34060;SDS011;20336;-33.424;-70.638;2023-07-31T07:20:08;72.30;;;28.17;;
34060;SDS011;20336;-33.424;-70.638;2023-07-31T07:22:35;65.60;;;26.60;;
34060;SDS011;20336;-33.424;-70.638;2023-07-31T07:25:03;69.63;;;26.77;;
34060;SDS011;20336;-33.424;-70.638;2023-07-31T07:27:32;69.27;;;25.83;;
34060;SDS011;20336;-33.424;-70.638;2023-07-31T07:29:59;70.27;;;28.83;;
34060;SDS011;20336;-33.424;-70.638;2023-07-31T07:32:26;81.57;;;31.50;;
34060;SDS011;20336;-33.424;-70.638;2023-07-31T07:34:53;75.23;;;31.77;;
34060;SDS011;20336;-33.424;-70.638;2023-07-31T07:37:22;78.03;;;29.57;;
34060;SDS011;20336;-33.424;-70.638;2023-07-31T07:39:48;83.90;;;29.57;;
34060;SDS011;20336;-33.424;-70.638;2023-07-31T07:42:15;98.97;;;32.93;;
34060;SDS011;20336;-33.424;-70.638;2023-07-31T07:44:42;88.47;;;33.00;;
34060;SDS011;20336;-33.424;-70.638;2023-07-31T07:47:09;89.73;;;34.40;;
34060;SDS011;20336;-33.424;-70.638;2023-07-31T07:49:36;87.73;;;33.50;;
34060;SDS011;20336;-33.424;-70.638;2023-07-31T07:52:03;81.50;;;30.27;;
34060;SDS011;20336;-33.424;-70.638;2023-07-31T07:54:30;77.63;;;30.60;;
34060;SDS011;20336;-33.424;-70.638;2023-07-31T07:56:57;79.47;;;30.13;;
34060;SDS011;20336;-33.424;-70.638;2023-07-31T07:59:24;81.23;;;29.80;;
34060;SDS011;20336;-33.424;-70.638;2023-07-31T08:01:51;77.23;;;29.37;;
34060;SDS011;20336;-33.424;-70.638;2023-07-31T08:04:18;74.07;;;29.17;;
34060;SDS011;20336;-33.424;-70.638;2023-07-31T08:06:45;76.23;;;30.70;;
34060;SDS011;20336;-33.424;-70.638;2023-07-31T08:09:12;80.00;;;30.73;;
34060;SDS011;20336;-33.424;-70.638;2023-07-31T08:11:39;80.67;;;30.30;;
34060;SDS011;20336;-33.424;-70.638;2023-07-31T08:14:06;90.37;;;32.33;;
34060;SDS011;20336;-33.424;-70.638;2023-07-31T08:16:32;92.83;;;33.17;;
34060;SDS011;20336;-33.424;-70.638;2023-07-31T08:18:59;89.30;;;34.33;;
34060;SDS011;20336;-33.424;-70.638;2023-07-31T08:21:26;88.10;;;32.60;;
34060;SDS011;20336;-33.424;-70.638;2023-07-31T08:23:53;83.60;;;32.03;;
34060;SDS011;20336;-33.424;-70.638;2023-07-31T08:26:20;81.37;;;31.70;;
34060;SDS011;20336;-33.424;-70.638;2023-07-31T08:28:47;85.23;;;31.90;;
34060;SDS011;20336;-33.424;-70.638;2023-07-31T08:31:13;85.70;;;32.00;;
34060;SDS011;20336;-33.424;-70.638;2023-07-31T08:33:40;88.27;;;31.57;;
34060;SDS011;20336;-33.424;-70.638;2023-07-31T08:36:07;87.47;;;32.43;;
34060;SDS011;20336;-33.424;-70.638;2023-07-31T08:38:34;83.73;;;31.33;;
34060;SDS011;20336;-33.424;-70.638;2023-07-31T08:41:02;93.07;;;32.23;;
34060;SDS011;20336;-33.424;-70.638;2023-07-31T08:43:30;78.63;;;31.90;;
34060;SDS011;20336;-33.424;-70.638;2023-07-31T08:45:58;96.00;;;34.03;;
34060;SDS011;20336;-33.424;-70.638;2023-07-31T08:48:26;96.30;;;34.90;;
34060;SDS011;20336;-33.424;-70.638;2023-07-31T08:50:55;96.70;;;33.37;;
34060;SDS011;20336;-33.424;-70.638;2023-07-31T08:53:21;89.53;;;35.03;;
34060;SDS011;20336;-33.424;-70.638;2023-07-31T08:55:48;90.23;;;33.03;;
34060;SDS011;20336;-33.424;-70.638;2023-07-31T08:58:18;97.50;;;34.67;;
34060;SDS011;20336;-33.424;-70.638;2023-07-31T09:00:45;96.20;;;33.67;;
34060;SDS011;20336;-33.424;-70.638;2023-07-31T09:03:17;87.50;;;33.13;;
34060;SDS011;20336;-33.424;-70.638;2023-07-31T09:05:45;105.40;;;36.30;;
34060;SDS011;20336;-33.424;-70.638;2023-07-31T09:08:13;105.17;;;36.67;;
34060;SDS011;20336;-33.424;-70.638;2023-07-31T09:10:43;103.20;;;35.93;;
34060;SDS011;20336;-33.424;-70.638;2023-07-31T09:13:17;98.57;;;35.63;;
34060;SDS011;20336;-33.424;-70.638;2023-07-31T09:15:44;103.57;;;35.97;;
34060;SDS011;20336;-33.424;-70.638;2023-07-31T09:18:12;108.07;;;39.10;;
34060;SDS011;20336;-33.424;-70.638;2023-07-31T09:23:42;102.37;;;38.33;;
34060;SDS011;20336;-33.424;-70.638;2023-07-31T09:26:10;111.93;;;40.03;;
34060;SDS011;20336;-33.424;-70.638;2023-07-31T09:28:54;97.03;;;37.43;;
34060;SDS011;20336;-33.424;-70.638;2023-07-31T09:31:33;99.97;;;36.70;;
34060;SDS011;20336;-33.424;-70.638;2023-07-31T09:34:09;107.70;;;38.23;;
34060;SDS011;20336;-33.424;-70.638;2023-07-31T09:36:40;113.07;;;39.73;;
34060;SDS011;20336;-33.424;-70.638;2023-07-31T09:39:09;110.27;;;40.23;;
34060;SDS011;20336;-33.424;-70.638;2023-07-31T09:41:40;104.07;;;38.93;;
34060;SDS011;20336;-33.424;-70.638;2023-07-31T09:44:11;106.90;;;40.67;;
34060;SDS011;20336;-33.424;-70.638;2023-07-31T09:46:38;107.60;;;40.33;;
34060;SDS011;20336;-33.424;-70.638;2023-07-31T09:49:08;112.57;;;42.23;;
34060;SDS011;20336;-33.424;-70.638;2023-07-31T09:51:39;112.03;;;41.43;;
34060;SDS011;20336;-33.424;-70.638;2023-07-31T09:54:11;118.83;;;44.77;;
34060;SDS011;20336;-33.424;-70.638;2023-07-31T09:56:43;120.93;;;43.80;;
34060;SDS011;20336;-33.424;-70.638;2023-07-31T09:59:15;124.60;;;44.87;;
34060;SDS011;20336;-33.424;-70.638;2023-07-31T10:01:43;118.00;;;43.00;;
34060;SDS011;20336;-33.424;-70.638;2023-07-31T10:04:12;108.70;;;39.27;;
34060;SDS011;20336;-33.424;-70.638;2023-07-31T10:06:40;120.13;;;42.67;;
34060;SDS011;20336;-33.424;-70.638;2023-07-31T10:09:09;966.60;;;203.90;;
34060;SDS011;20336;-33.424;-70.638;2023-07-31T10:11:47;426.93;;;109.10;;
34060;SDS011;20336;-33.424;-70.638;2023-07-31T10:14:35;155.40;;;52.13;;
34060;SDS011;20336;-33.424;-70.638;2023-07-31T10:17:02;140.80;;;46.17;;
34060;SDS011;20336;-33.424;-70.638;2023-07-31T10:19:31;135.90;;;46.80;;
34060;SDS011;20336;-33.424;-70.638;2023-07-31T10:21:59;119.97;;;43.90;;
34060;SDS011;20336;-33.424;-70.638;2023-07-31T10:24:26;130.93;;;45.10;;
34060;SDS011;20336;-33.424;-70.638;2023-07-31T10:26:53;114.67;;;43.40;;
34060;SDS011;20336;-33.424;-70.638;2023-07-31T10:29:25;140.77;;;53.63;;
34060;SDS011;20336;-33.424;-70.638;2023-07-31T10:31:56;153.23;;;63.33;;
34060;SDS011;20336;-33.424;-70.638;2023-07-31T10:34:24;165.67;;;71.57;;
34060;SDS011;20336;-33.424;-70.638;2023-07-31T10:37:12;192.50;;;78.70;;
34060;SDS011;20336;-33.424;-70.638;2023-07-31T10:40:10;172.53;;;74.60;;
34060;SDS011;20336;-33.424;-70.638;2023-07-31T10:42:51;170.13;;;67.27;;
34060;SDS011;20336;-33.424;-70.638;2023-07-31T10:45:39;149.50;;;57.83;;
34060;SDS011;20336;-33.424;-70.638;2023-07-31T10:48:15;130.90;;;51.93;;
34060;SDS011;20336;-33.424;-70.638;2023-07-31T10:50:51;118.63;;;48.43;;
34060;SDS011;20336;-33.424;-70.638;2023-07-31T10:53:25;119.43;;;45.73;;
34060;SDS011;20336;-33.424;-70.638;2023-07-31T10:56:01;106.53;;;42.10;;
34060;SDS011;20336;-33.424;-70.638;2023-07-31T10:58:30;101.57;;;39.97;;
34060;SDS011;20336;-33.424;-70.638;2023-07-31T11:00:58;99.57;;;38.83;;
34060;SDS011;20336;-33.424;-70.638;2023-07-31T11:03:27;86.03;;;36.50;;
34060;SDS011;20336;-33.424;-70.638;2023-07-31T11:06:07;98.53;;;39.70;;
34060;SDS011;20336;-33.424;-70.638;2023-07-31T11:08:35;94.90;;;38.60;;
34060;SDS011;20336;-33.424;-70.638;2023-07-31T11:11:08;107.70;;;39.53;;
34060;SDS011;20336;-33.424;-70.638;2023-07-31T11:16:12;82.80;;;35.90;;
34060;SDS011;20336;-33.424;-70.638;2023-07-31T11:18:40;79.23;;;35.03;;
34060;SDS011;20336;-33.424;-70.638;2023-07-31T11:21:08;73.40;;;30.07;;
34060;SDS011;20336;-33.424;-70.638;2023-07-31T11:23:47;70.43;;;30.03;;
34060;SDS011;20336;-33.424;-70.638;2023-07-31T11:26:15;71.23;;;28.80;;
34060;SDS011;20336;-33.424;-70.638;2023-07-31T11:28:42;65.10;;;26.87;;
34060;SDS011;20336;-33.424;-70.638;2023-07-31T11:31:11;66.50;;;27.07;;
34060;SDS011;20336;-33.424;-70.638;2023-07-31T11:33:38;71.00;;;28.73;;
34060;SDS011;20336;-33.424;-70.638;2023-07-31T11:36:05;70.37;;;28.30;;
34060;SDS011;20336;-33.424;-70.638;2023-07-31T11:38:33;67.00;;;28.27;;
34060;SDS011;20336;-33.424;-70.638;2023-07-31T11:41:01;61.93;;;27.30;;
34060;SDS011;20336;-33.424;-70.638;2023-07-31T11:43:29;67.97;;;29.27;;
34060;SDS011;20336;-33.424;-70.638;2023-07-31T11:45:58;70.07;;;29.90;;
34060;SDS011;20336;-33.424;-70.638;2023-07-31T11:48:28;67.73;;;29.17;;
34060;SDS011;20336;-33.424;-70.638;2023-07-31T11:51:00;66.77;;;30.20;;
34060;SDS011;20336;-33.424;-70.638;2023-07-31T11:53:33;61.50;;;29.57;;
34060;SDS011;20336;-33.424;-70.638;2023-07-31T11:56:02;59.37;;;28.80;;
34060;SDS011;20336;-33.424;-70.638;2023-07-31T11:58:33;60.47;;;29.93;;
34060;SDS011;20336;-33.424;-70.638;2023-07-31T12:01:01;54.40;;;27.60;;
34060;SDS011;20336;-33.424;-70.638;2023-07-31T12:03:28;60.00;;;29.03;;
34060;SDS011;20336;-33.424;-70.638;2023-07-31T12:05:55;56.13;;;28.53;;
34060;SDS011;20336;-33.424;-70.638;2023-07-31T12:08:24;55.23;;;26.07;;
34060;SDS011;20336;-33.424;-70.638;2023-07-31T12:10:52;53.10;;;26.90;;
34060;SDS011;20336;-33.424;-70.638;2023-07-31T12:13:22;53.17;;;26.53;;
34060;SDS011;20336;-33.424;-70.638;2023-07-31T12:15:59;51.63;;;26.17;;
34060;SDS011;20336;-33.424;-70.638;2023-07-31T12:18:30;54.73;;;26.10;;
34060;SDS011;20336;-33.424;-70.638;2023-07-31T12:21:01;49.67;;;26.23;;
34060;SDS011;20336;-33.424;-70.638;2023-07-31T12:23:31;49.47;;;25.70;;
34060;SDS011;20336;-33.424;-70.638;2023-07-31T12:28:36;46.37;;;24.27;;
34060;SDS011;20336;-33.424;-70.638;2023-07-31T12:31:04;44.33;;;23.40;;
34060;SDS011;20336;-33.424;-70.638;2023-07-31T12:33:32;43.53;;;22.93;;
34060;SDS011;20336;-33.424;-70.638;2023-07-31T12:36:01;50.77;;;22.90;;
34060;SDS011;20336;-33.424;-70.638;2023-07-31T12:38:29;48.10;;;22.30;;
34060;SDS011;20336;-33.424;-70.638;2023-07-31T12:40:56;43.60;;;23.03;;
34060;SDS011;20336;-33.424;-70.638;2023-07-31T12:43:23;43.07;;;23.27;;
34060;SDS011;20336;-33.424;-70.638;2023-07-31T12:45:50;49.17;;;22.33;;
34060;SDS011;20336;-33.424;-70.638;2023-07-31T12:48:17;48.03;;;23.03;;
34060;SDS011;20336;-33.424;-70.638;2023-07-31T12:50:44;38.63;;;21.63;;
34060;SDS011;20336;-33.424;-70.638;2023-07-31T12:53:11;43.30;;;23.17;;
34060;SDS011;20336;-33.424;-70.638;2023-07-31T12:55:37;45.87;;;23.53;;
34060;SDS011;20336;-33.424;-70.638;2023-07-31T12:58:04;47.77;;;24.47;;
34060;SDS011;20336;-33.424;-70.638;2023-07-31T13:00:31;39.28;;;23.33;;
34060;SDS011;20336;-33.424;-70.638;2023-07-31T13:02:58;44.03;;;23.20;;
34060;SDS011;20336;-33.424;-70.638;2023-07-31T13:05:29;47.38;;;23.55;;
34060;SDS011;20336;-33.424;-70.638;2023-07-31T13:07:56;43.08;;;22.90;;
34060;SDS011;20336;-33.424;-70.638;2023-07-31T13:10:23;44.35;;;23.63;;
34060;SDS011;20336;-33.424;-70.638;2023-07-31T13:12:52;42.22;;;21.98;;
34060;SDS011;20336;-33.424;-70.638;2023-07-31T13:15:19;35.65;;;19.15;;
34060;SDS011;20336;-33.424;-70.638;2023-07-31T13:17:46;36.00;;;21.02;;
34060;SDS011;20336;-33.424;-70.638;2023-07-31T13:20:13;35.40;;;20.20;;
34060;SDS011;20336;-33.424;-70.638;2023-07-31T13:22:40;34.83;;;20.52;;
34060;SDS011;20336;-33.424;-70.638;2023-07-31T13:25:07;40.17;;;21.40;;
34060;SDS011;20336;-33.424;-70.638;2023-07-31T13:27:34;40.30;;;21.17;;
34060;SDS011;20336;-33.424;-70.638;2023-07-31T13:30:01;36.42;;;18.77;;
34060;SDS011;20336;-33.424;-70.638;2023-07-31T13:32:29;44.05;;;21.05;;
34060;SDS011;20336;-33.424;-70.638;2023-07-31T13:34:56;31.17;;;18.52;;
34060;SDS011;20336;-33.424;-70.638;2023-07-31T13:37:22;34.10;;;19.23;;
34060;SDS011;20336;-33.424;-70.638;2023-07-31T13:39:50;38.17;;;20.77;;
34060;SDS011;20336;-33.424;-70.638;2023-07-31T13:42:17;41.08;;;22.83;;
34060;SDS011;20336;-33.424;-70.638;2023-07-31T13:44:43;41.95;;;22.85;;
34060;SDS011;20336;-33.424;-70.638;2023-07-31T13:47:10;40.90;;;22.48;;
34060;SDS011;20336;-33.424;-70.638;2023-07-31T13:49:37;44.85;;;23.13;;
34060;SDS011;20336;-33.424;-70.638;2023-07-31T13:52:04;46.78;;;24.10;;
34060;SDS011;20336;-33.424;-70.638;2023-07-31T13:54:31;46.83;;;23.58;;
34060;SDS011;20336;-33.424;-70.638;2023-07-31T13:56:58;46.25;;;24.95;;
34060;SDS011;20336;-33.424;-70.638;2023-07-31T13:59:25;49.42;;;24.05;;